Time;durP1;ratioP1;P1;durP2;ratioP2;P2;SDS_P1;SDS_P2;PMS_P1;PMS_P2;Temp;Humidity;BMP_temperature;BMP_pressure;BME280_temperature;BME280_humidity;BME280_pressure;Samples;Min_cycle;Max_cycle;Signal;HPM_P1;HPM_P2
2022/11/26 00:01:16;;;;;;;45.40;20.30;;;2.90;99.90;;;;;;5113970;28;20571;-71
2022/11/26 00:03:43;;;;;;;51.35;20.33;;;2.80;99.90;;;;;;5095271;28;20188;-71
2022/11/26 00:06:40;;;;;;;51.05;19.70;;;2.90;99.90;;;;;;5114006;28;20187;-70
2022/11/26 00:09:24;;;;;;;43.38;16.95;;;2.80;99.90;;;;;;5095790;28;20214;-71
2022/11/26 00:11:49;;;;;;;67.10;18.90;;;2.90;99.90;;;;;;5114314;28;20525;-72
2022/11/26 00:14:16;;;;;;;50.33;16.87;;;2.80;99.90;;;;;;5113958;28;20172;-71
2022/11/26 00:16:42;;;;;;;35.05;16.85;;;2.80;99.90;;;;;;5095734;28;20233;-70
2022/11/26 00:19:08;;;;;;;51.75;17.60;;;2.80;99.90;;;;;;5095585;28;20684;-70
2022/11/26 00:21:38;;;;;;;58.97;18.30;;;2.80;99.90;;;;;;5095823;28;20179;-71
2022/11/26 00:24:05;;;;;;;57.20;17.10;;;2.80;99.90;;;;;;5113964;28;20168;-70
2022/11/26 00:26:31;;;;;;;60.08;17.85;;;2.80;99.90;;;;;;5095676;28;20175;-70
2022/11/26 00:28:59;;;;;;;40.33;14.03;;;2.80;99.90;;;;;;5113994;28;20659;-71
2022/11/26 00:31:26;;;;;;;31.92;14.93;;;2.70;99.90;;;;;;5113874;28;20441;-70
2022/11/26 00:33:51;;;;;;;53.80;16.05;;;2.60;99.90;;;;;;5113909;28;20176;-72
2022/11/26 00:36:23;;;;;;;54.10;16.77;;;2.60;99.90;;;;;;5095497;28;20196;-71
2022/11/26 00:39:12;;;;;;;43.38;15.88;;;2.60;99.90;;;;;;5091986;28;20503;-70
2022/11/26 00:41:38;;;;;;;48.95;20.60;;;2.50;99.90;;;;;;5093182;28;20197;-70
2022/11/26 00:44:18;;;;;;;44.50;17.98;;;2.50;99.90;;;;;;5093444;28;20172;-69
2022/11/26 00:46:44;;;;;;;65.22;17.80;;;2.50;99.90;;;;;;5093673;28;20168;-70
2022/11/26 00:49:09;;;;;;;54.33;16.58;;;2.50;99.90;;;;;;5093322;28;20168;-70
2022/11/26 00:51:35;;;;;;;40.00;15.37;;;2.50;99.90;;;;;;5092307;28;20598;-71
2022/11/26 00:54:02;;;;;;;32.03;15.87;;;2.50;99.90;;;;;;5092098;28;20188;-70
2022/11/26 00:56:28;;;;;;;42.67;16.95;;;2.50;99.90;;;;;;5091962;28;20415;-70
2022/11/26 00:58:54;;;;;;;59.67;16.63;;;2.50;99.90;;;;;;5093272;28;20543;-70
2022/11/26 01:01:26;;;;;;;58.70;14.73;;;2.50;99.90;;;;;;5093068;28;20189;-70
2022/11/26 01:03:52;;;;;;;33.28;15.18;;;2.50;99.90;;;;;;5093370;28;20157;-71
2022/11/26 01:06:24;;;;;;;45.72;16.60;;;2.50;99.90;;;;;;5093153;28;20645;-70
2022/11/26 01:08:50;;;;;;;34.33;17.67;;;2.50;99.90;;;;;;5093250;28;20169;-70
2022/11/26 01:11:20;;;;;;;49.00;15.60;;;2.50;99.90;;;;;;5091736;28;20223;-71
2022/11/26 01:13:47;;;;;;;44.10;15.13;;;2.50;99.90;;;;;;5093167;28;20470;-70
2022/11/26 01:16:20;;;;;;;51.53;16.75;;;2.50;99.90;;;;;;5095998;28;20224;-70
2022/11/26 01:18:49;;;;;;;40.88;15.95;;;2.40;99.90;;;;;;5096806;28;20180;-70
2022/11/26 01:21:15;;;;;;;40.25;17.52;;;2.40;99.90;;;;;;5096528;28;20208;-70
2022/11/26 01:23:41;;;;;;;38.00;16.50;;;2.40;99.90;;;;;;5096709;28;20218;-70
2022/11/26 01:26:16;;;;;;;33.50;15.37;;;2.40;99.90;;;;;;5096561;28;20223;-70
2022/11/26 01:28:42;;;;;;;45.15;15.65;;;2.40;99.90;;;;;;5096553;28;20458;-70
2022/11/26 01:31:17;;;;;;;59.17;15.95;;;2.40;99.90;;;;;;5096411;28;20287;-70
2022/11/26 01:33:43;;;;;;;28.58;13.93;;;2.40;99.90;;;;;;5096577;28;20209;-70
2022/11/26 01:36:26;;;;;;;32.03;14.75;;;2.40;99.90;;;;;;5096365;28;20184;-70
2022/11/26 01:39:19;;;;;;;46.63;15.20;;;2.40;99.90;;;;;;5095120;28;20281;-70
2022/11/26 01:42:06;;;;;;;34.97;15.52;;;2.40;99.90;;;;;;5092865;28;20646;-70
2022/11/26 01:44:33;;;;;;;35.80;14.13;;;2.30;99.90;;;;;;5096262;28;20192;-70
2022/11/26 01:47:01;;;;;;;51.85;15.40;;;2.40;99.90;;;;;;5096326;28;20577;-70
2022/11/26 01:49:32;;;;;;;37.42;14.73;;;2.30;99.90;;;;;;5096059;28;20295;-70
2022/11/26 01:52:19;;;;;;;47.85;15.80;;;2.30;99.90;;;;;;5094972;28;20182;-70
2022/11/26 01:54:46;;;;;;;52.33;14.93;;;2.30;99.90;;;;;;5096155;28;20192;-70
2022/11/26 01:57:16;;;;;;;54.90;15.48;;;2.30;99.90;;;;;;5095811;28;20671;-70
2022/11/26 01:59:44;;;;;;;39.60;15.85;;;2.30;99.90;;;;;;5095978;28;20254;-70
2022/11/26 02:02:10;;;;;;;41.75;16.10;;;2.30;99.90;;;;;;5094543;28;20176;-71
2022/11/26 02:04:45;;;;;;;42.38;16.15;;;2.30;99.90;;;;;;5095814;28;20208;-71
2022/11/26 02:07:11;;;;;;;33.55;15.80;;;2.40;99.90;;;;;;5095912;28;20172;-70
2022/11/26 02:09:37;;;;;;;48.10;14.97;;;2.40;99.90;;;;;;5094474;28;20637;-71
2022/11/26 02:12:03;;;;;;;44.00;17.03;;;2.50;99.90;;;;;;5095795;28;20177;-70
2022/11/26 02:14:34;;;;;;;49.63;17.13;;;2.50;99.90;;;;;;5095586;28;20508;-70
2022/11/26 02:17:16;;;;;;;40.17;14.95;;;2.50;99.90;;;;;;5094482;28;20176;-70
2022/11/26 02:20:00;;;;;;;52.53;14.68;;;2.50;99.90;;;;;;5094250;28;20228;-70
2022/11/26 02:22:46;;;;;;;48.65;15.27;;;2.50;99.90;;;;;;5095861;28;20176;-70
2022/11/26 02:25:21;;;;;;;55.88;15.50;;;2.60;99.90;;;;;;5094745;28;20746;-70
2022/11/26 02:28:14;;;;;;;42.17;13.98;;;2.60;99.90;;;;;;5095797;28;20176;-70
2022/11/26 02:30:47;;;;;;;33.80;13.65;;;2.60;99.90;;;;;;5095400;28;20235;-71
2022/11/26 02:33:16;;;;;;;43.35;14.88;;;2.70;99.90;;;;;;5094235;28;20176;-70
2022/11/26 02:35:56;;;;;;;68.13;16.67;;;2.70;99.90;;;;;;5093870;28;20267;-70
2022/11/26 02:38:24;;;;;;;45.45;12.40;;;2.70;99.90;;;;;;5094013;28;20235;-70
2022/11/26 02:40:51;;;;;;;38.25;13.70;;;2.70;99.90;;;;;;5095059;28;20265;-70
2022/11/26 02:43:18;;;;;;;43.42;13.52;;;2.70;99.90;;;;;;5095617;28;20205;-71
2022/11/26 02:45:53;;;;;;;66.95;14.00;;;2.70;99.90;;;;;;5093706;28;20203;-71
2022/11/26 02:48:22;;;;;;;48.60;13.15;;;2.70;99.90;;;;;;5095055;28;20222;-71
2022/11/26 02:50:55;;;;;;;62.35;14.05;;;2.80;99.90;;;;;;5094983;28;20231;-71
2022/11/26 02:53:24;;;;;;;64.65;14.75;;;2.80;99.90;;;;;;5095513;28;20172;-70
2022/11/26 02:56:00;;;;;;;48.60;13.75;;;2.80;99.90;;;;;;5094781;28;20559;-70
2022/11/26 02:58:25;;;;;;;46.10;12.38;;;2.80;99.90;;;;;;5093853;28;20641;-71
2022/11/26 03:00:53;;;;;;;72.37;14.10;;;2.80;99.90;;;;;;5093410;28;20227;-71
2022/11/26 03:03:29;;;;;;;46.28;12.55;;;2.80;99.90;;;;;;5094607;28;20174;-70
2022/11/26 03:05:59;;;;;;;57.70;15.15;;;2.80;99.90;;;;;;5094650;28;20188;-70
2022/11/26 03:08:26;;;;;;;31.73;14.00;;;2.80;99.90;;;;;;5095279;28;20168;-71
2022/11/26 03:10:51;;;;;;;33.47;12.80;;;2.80;99.90;;;;;;5094565;28;20628;-70
2022/11/26 03:13:17;;;;;;;45.80;14.50;;;2.80;99.90;;;;;;5093548;28;20184;-71
2022/11/26 03:15:43;;;;;;;45.53;13.93;;;2.80;99.90;;;;;;5093234;28;20234;-70
2022/11/26 03:18:09;;;;;;;52.38;14.10;;;2.90;99.90;;;;;;5093330;28;20264;-70
2022/11/26 03:20:34;;;;;;;27.83;12.43;;;2.90;99.90;;;;;;5093052;28;20690;-70
2022/11/26 03:23:00;;;;;;;28.73;13.00;;;2.90;99.90;;;;;;5094873;28;20183;-70
2022/11/26 03:25:26;;;;;;;35.65;14.45;;;2.90;99.90;;;;;;5092914;28;20223;-70
2022/11/26 03:27:52;;;;;;;37.77;13.73;;;2.90;99.90;;;;;;5093274;28;20219;-70
2022/11/26 03:30:17;;;;;;;28.67;13.33;;;2.90;99.90;;;;;;5094130;28;20723;-71
2022/11/26 03:32:43;;;;;;;49.57;13.20;;;2.90;99.90;;;;;;5093170;28;20630;-70
2022/11/26 03:35:08;;;;;;;38.33;14.10;;;2.90;99.90;;;;;;5094096;28;20536;-70
2022/11/26 03:37:34;;;;;;;36.03;12.77;;;2.90;99.90;;;;;;5091965;28;20259;-70
2022/11/26 03:40:00;;;;;;;39.73;14.20;;;2.90;99.90;;;;;;5094010;28;20221;-71
2022/11/26 03:42:26;;;;;;;42.60;15.10;;;2.90;99.90;;;;;;5092826;28;20462;-70
2022/11/26 03:44:51;;;;;;;29.37;13.00;;;2.90;99.90;;;;;;5092776;28;20666;-70
2022/11/26 03:47:17;;;;;;;32.93;13.10;;;2.90;99.90;;;;;;5093824;28;20172;-70
2022/11/26 03:49:43;;;;;;;34.23;13.67;;;2.90;99.90;;;;;;5093947;28;20333;-70
2022/11/26 03:52:08;;;;;;;40.47;12.80;;;2.90;99.90;;;;;;5092641;28;20204;-71
2022/11/26 03:54:34;;;;;;;35.90;14.00;;;2.90;99.90;;;;;;5093887;28;20661;-70
2022/11/26 03:56:59;;;;;;;31.67;13.63;;;3.00;99.90;;;;;;5092716;28;20176;-70
2022/11/26 03:59:25;;;;;;;37.40;13.67;;;3.00;99.90;;;;;;5093741;28;20215;-70
2022/11/26 04:01:50;;;;;;;36.90;13.53;;;3.00;99.90;;;;;;5094031;28;20173;-71
2022/11/26 04:04:16;;;;;;;29.90;13.17;;;3.00;99.90;;;;;;5092371;28;20215;-71
2022/11/26 04:06:42;;;;;;;31.35;13.82;;;3.00;99.90;;;;;;5094068;28;20172;-71
2022/11/26 04:09:08;;;;;;;33.23;14.50;;;3.00;99.90;;;;;;5093690;28;20696;-71
2022/11/26 04:11:33;;;;;;;29.57;13.90;;;3.00;99.90;;;;;;5092549;28;20175;-71
2022/11/26 04:13:59;;;;;;;27.63;12.70;;;3.00;99.90;;;;;;5093706;28;20267;-70
2022/11/26 04:16:25;;;;;;;32.90;13.57;;;3.00;99.90;;;;;;5092497;28;20176;-70
2022/11/26 04:18:50;;;;;;;29.90;14.97;;;3.00;99.90;;;;;;5093733;28;20458;-71
2022/11/26 04:21:16;;;;;;;29.30;14.97;;;3.10;99.90;;;;;;5093373;28;20236;-70
2022/11/26 04:23:41;;;;;;;26.63;13.43;;;3.10;99.90;;;;;;5093670;28;20180;-70
2022/11/26 04:26:07;;;;;;;28.13;12.90;;;3.10;99.90;;;;;;5092304;28;20193;-70
2022/11/26 04:28:33;;;;;;;26.07;13.87;;;3.10;99.90;;;;;;5094156;28;20181;-71
2022/11/26 04:30:59;;;;;;;30.23;13.53;;;3.20;99.90;;;;;;5093473;28;20586;-70
2022/11/26 04:33:26;;;;;;;33.97;14.67;;;3.20;99.90;;;;;;5094059;28;20191;-70
2022/11/26 04:35:52;;;;;;;32.15;14.20;;;3.20;99.90;;;;;;5093504;28;20425;-71
2022/11/26 04:38:17;;;;;;;45.92;16.45;;;3.30;99.90;;;;;;5092157;28;20685;-71
2022/11/26 04:40:43;;;;;;;30.60;15.13;;;3.30;99.90;;;;;;5093408;28;20307;-70
2022/11/26 04:43:08;;;;;;;32.23;14.20;;;3.30;99.90;;;;;;5093867;28;20552;-71
2022/11/26 04:45:34;;;;;;;28.13;12.67;;;3.30;99.90;;;;;;5093419;28;20677;-70
2022/11/26 04:47:59;;;;;;;28.50;15.20;;;3.40;99.90;;;;;;5092294;28;20637;-70
2022/11/26 04:50:25;;;;;;;30.77;15.87;;;3.40;99.90;;;;;;5096988;28;20290;-70
2022/11/26 04:52:51;;;;;;;36.20;14.73;;;3.40;99.90;;;;;;5097671;28;20172;-70
2022/11/26 04:55:17;;;;;;;35.63;15.90;;;3.40;99.90;;;;;;5097102;28;20200;-70
2022/11/26 04:57:43;;;;;;;36.03;16.55;;;3.40;99.90;;;;;;5097459;28;20709;-70
2022/11/26 05:00:10;;;;;;;34.45;15.05;;;3.50;99.90;;;;;;5096909;28;20586;-70
2022/11/26 05:02:35;;;;;;;32.55;16.65;;;3.50;99.90;;;;;;5095931;28;20184;-72
2022/11/26 05:05:01;;;;;;;58.73;26.53;;;3.50;99.90;;;;;;5097009;28;20670;-72
2022/11/26 05:07:26;;;;;;;55.43;30.13;;;3.50;99.90;;;;;;5095695;28;20242;-72
2022/11/26 05:09:52;;;;;;;43.83;19.70;;;3.60;99.90;;;;;;5096889;28;20196;-70
2022/11/26 05:12:17;;;;;;;63.60;30.37;;;3.60;99.90;;;;;;5097126;28;20168;-72
2022/11/26 05:14:43;;;;;;;62.60;27.67;;;3.60;99.90;;;;;;5096837;28;20324;-70
2022/11/26 05:17:08;;;;;;;117.20;63.70;;;3.70;99.90;;;;;;5095539;28;20565;-71
2022/11/26 05:19:34;;;;;;;50.00;27.80;;;3.70;99.90;;;;;;5095263;28;20715;-71
2022/11/26 05:22:00;;;;;;;69.83;34.63;;;3.70;99.90;;;;;;5096577;28;20178;-72
2022/11/26 05:24:25;;;;;;;34.50;20.43;;;3.70;99.90;;;;;;5095298;28;20200;-71
2022/11/26 05:26:51;;;;;;;31.13;16.57;;;3.70;99.90;;;;;;5096714;28;20188;-71
2022/11/26 05:29:16;;;;;;;29.97;14.27;;;3.80;99.90;;;;;;5096485;28;20200;-72
2022/11/26 05:31:42;;;;;;;26.70;14.67;;;3.80;99.90;;;;;;5096408;28;20538;-72
2022/11/26 05:34:08;;;;;;;34.57;17.10;;;3.80;99.90;;;;;;5096439;28;20176;-71
2022/11/26 05:36:33;;;;;;;34.40;16.37;;;3.80;99.90;;;;;;5096532;28;20210;-72
2022/11/26 05:38:59;;;;;;;36.90;16.47;;;3.80;99.90;;;;;;5112440;28;20228;-72
2022/11/26 05:41:24;;;;;;;32.83;15.97;;;3.90;99.90;;;;;;5116720;28;20179;-71
2022/11/26 05:43:50;;;;;;;33.00;16.13;;;3.90;99.90;;;;;;5116687;28;20179;-72
2022/11/26 05:46:17;;;;;;;30.60;14.50;;;3.90;99.90;;;;;;5098099;28;20188;-71
2022/11/26 05:48:43;;;;;;;28.23;14.70;;;4.00;99.90;;;;;;5098201;28;20199;-72
2022/11/26 05:51:09;;;;;;;33.97;16.20;;;4.00;99.90;;;;;;5098111;28;20195;-72
2022/11/26 05:53:35;;;;;;;30.60;15.50;;;4.00;99.90;;;;;;5117001;28;20478;-72
2022/11/26 05:56:00;;;;;;;27.90;16.40;;;4.10;99.90;;;;;;5098151;28;20866;-72
2022/11/26 05:58:26;;;;;;;43.07;20.80;;;4.10;99.90;;;;;;5116814;28;20191;-72
2022/11/26 06:00:52;;;;;;;33.17;19.50;;;4.10;99.90;;;;;;5115282;28;20216;-72
2022/11/26 06:03:17;;;;;;;31.40;18.37;;;4.10;99.90;;;;;;5116718;28;20182;-71
2022/11/26 06:05:43;;;;;;;32.30;16.10;;;4.20;99.90;;;;;;5097918;28;20614;-72
2022/11/26 06:08:09;;;;;;;32.50;16.57;;;4.20;99.90;;;;;;5098210;28;20183;-72
2022/11/26 06:10:34;;;;;;;31.70;16.53;;;4.20;99.90;;;;;;5116091;28;20254;-71
2022/11/26 06:13:00;;;;;;;30.77;18.23;;;4.20;99.90;;;;;;5116496;28;20184;-71
2022/11/26 06:15:25;;;;;;;46.60;20.90;;;4.30;99.90;;;;;;5116013;28;20210;-71
2022/11/26 06:17:51;;;;;;;40.83;18.90;;;4.30;99.90;;;;;;5116484;28;20183;-72
2022/11/26 06:20:17;;;;;;;29.03;15.80;;;4.30;99.90;;;;;;5115753;28;20239;-72
2022/11/26 06:22:43;;;;;;;29.77;14.40;;;4.30;99.90;;;;;;5097505;28;20187;-73
2022/11/26 06:25:12;;;;;;;34.27;16.70;;;4.30;99.90;;;;;;5115828;28;20196;-72
2022/11/26 06:27:38;;;;;;;32.97;17.50;;;4.30;99.90;;;;;;5116120;28;20442;-71
2022/11/26 06:30:06;;;;;;;31.85;16.08;;;4.30;99.90;;;;;;5097451;28;20191;-72
2022/11/26 06:32:31;;;;;;;33.28;16.85;;;4.30;99.90;;;;;;5115524;28;20218;-72
2022/11/26 06:34:57;;;;;;;39.67;20.93;;;4.30;99.90;;;;;;5097297;28;20541;-71
2022/11/26 06:37:23;;;;;;;33.30;17.07;;;4.30;99.90;;;;;;5115584;28;20205;-71
2022/11/26 06:39:49;;;;;;;27.35;15.00;;;4.30;99.90;;;;;;5115484;28;20722;-71
2022/11/26 06:42:15;;;;;;;32.67;15.87;;;4.30;99.90;;;;;;5115772;28;20271;-71
2022/11/26 06:44:41;;;;;;;28.20;15.57;;;4.20;99.90;;;;;;5115353;28;20660;-71
2022/11/26 06:47:10;;;;;;;37.60;21.30;;;4.20;99.90;;;;;;5115565;28;20180;-71
2022/11/26 06:49:35;;;;;;;36.35;21.45;;;4.20;99.90;;;;;;5115281;28;20432;-71
2022/11/26 06:52:01;;;;;;;42.60;20.37;;;4.20;99.90;;;;;;5097052;28;20512;-71
2022/11/26 06:54:27;;;;;;;38.43;19.67;;;4.20;99.90;;;;;;5115230;28;20200;-72
2022/11/26 06:56:52;;;;;;;34.63;18.63;;;4.30;99.90;;;;;;5115393;28;20267;-72
2022/11/26 06:59:18;;;;;;;34.03;19.30;;;4.30;99.90;;;;;;5114969;28;20200;-73
2022/11/26 07:01:43;;;;;;;36.83;17.60;;;4.30;99.90;;;;;;5115178;28;20184;-71
2022/11/26 07:04:13;;;;;;;35.33;18.57;;;4.30;99.90;;;;;;5115016;28;20183;-72
2022/11/26 07:06:39;;;;;;;34.00;17.77;;;4.30;99.90;;;;;;5115170;28;20612;-73
2022/11/26 07:09:08;;;;;;;30.00;15.45;;;4.30;99.90;;;;;;5114973;28;20640;-72
2022/11/26 07:11:35;;;;;;;28.38;15.82;;;4.30;99.90;;;;;;5114862;28;20168;-72
2022/11/26 07:14:01;;;;;;;30.02;16.67;;;4.30;99.90;;;;;;5114792;28;20179;-71
2022/11/26 07:16:27;;;;;;;30.27;15.83;;;4.40;99.90;;;;;;5114785;28;20168;-73
2022/11/26 07:18:55;;;;;;;37.47;18.38;;;4.40;99.90;;;;;;5114828;28;20168;-72
2022/11/26 07:21:21;;;;;;;34.22;18.33;;;4.40;99.90;;;;;;5115088;28;20694;-71
2022/11/26 07:23:47;;;;;;;33.70;18.92;;;4.40;99.90;;;;;;5114748;28;20219;-72
2022/11/26 07:26:14;;;;;;;35.60;19.55;;;4.40;99.90;;;;;;5096237;28;20199;-71
2022/11/26 07:28:40;;;;;;;33.13;16.25;;;4.50;99.90;;;;;;5114643;28;20267;-72
2022/11/26 07:31:10;;;;;;;31.73;15.98;;;4.50;99.90;;;;;;5096283;28;20562;-71
2022/11/26 07:33:36;;;;;;;33.67;17.10;;;4.50;99.90;;;;;;5114652;28;20277;-72
2022/11/26 07:36:04;;;;;;;39.10;19.80;;;4.50;99.90;;;;;;5114420;28;20234;-72
2022/11/26 07:38:31;;;;;;;35.97;18.55;;;4.50;99.90;;;;;;5114164;28;20465;-71
2022/11/26 07:41:08;;;;;;;39.30;22.98;;;4.50;99.90;;;;;;5096048;28;20699;-72
2022/11/26 07:43:36;;;;;;;40.88;22.58;;;4.50;99.90;;;;;;5114780;28;20218;-72
2022/11/26 07:46:04;;;;;;;46.33;24.48;;;4.50;99.90;;;;;;5114431;28;20190;-72
2022/11/26 07:48:30;;;;;;;37.50;21.58;;;4.50;99.90;;;;;;5096315;28;20547;-72
2022/11/26 07:50:57;;;;;;;43.22;20.25;;;4.60;99.90;;;;;;5114175;28;20256;-72
2022/11/26 07:53:22;;;;;;;35.53;18.13;;;4.60;99.90;;;;;;5114811;28;20179;-71
2022/11/26 07:55:48;;;;;;;37.50;19.17;;;4.60;99.90;;;;;;5114206;28;20236;-72
2022/11/26 07:58:14;;;;;;;48.00;26.97;;;4.70;99.90;;;;;;5114814;28;20179;-72
2022/11/26 08:00:39;;;;;;;39.67;22.00;;;4.70;99.90;;;;;;5114112;28;20211;-72
2022/11/26 08:03:05;;;;;;;37.43;20.77;;;4.80;99.90;;;;;;5097576;28;20432;-71
2022/11/26 08:05:31;;;;;;;43.83;23.90;;;4.80;99.90;;;;;;5104517;28;20196;-72
2022/11/26 08:07:56;;;;;;;47.27;26.80;;;4.80;99.90;;;;;;5094702;28;20222;-72
2022/11/26 08:10:22;;;;;;;45.23;23.30;;;4.90;99.90;;;;;;5074920;28;20200;-72
2022/11/26 08:12:48;;;;;;;45.77;24.03;;;4.90;99.90;;;;;;5093404;28;20173;-73
2022/11/26 08:15:13;;;;;;;40.10;21.40;;;4.90;99.90;;;;;;5093185;28;20207;-73
2022/11/26 08:17:39;;;;;;;38.10;22.47;;;5.00;99.90;;;;;;5091422;28;20478;-74
2022/11/26 08:20:05;;;;;;;38.47;22.00;;;5.00;99.90;;;;;;5073223;28;20624;-72
2022/11/26 08:22:31;;;;;;;35.88;19.10;;;5.00;99.90;;;;;;5091559;28;20255;-73
2022/11/26 08:24:57;;;;;;;47.07;23.47;;;5.10;99.90;;;;;;5099838;28;20286;-73
2022/11/26 08:27:22;;;;;;;44.43;23.17;;;5.10;99.90;;;;;;5102282;28;20685;-73
2022/11/26 08:29:48;;;;;;;49.83;26.50;;;5.20;99.90;;;;;;5095346;28;20707;-73
2022/11/26 08:32:14;;;;;;;33.73;20.00;;;5.20;99.90;;;;;;5103869;28;20179;-73
2022/11/26 08:34:39;;;;;;;38.07;21.03;;;5.20;99.90;;;;;;5098943;28;20679;-73
2022/11/26 08:37:05;;;;;;;46.87;24.00;;;5.20;99.90;;;;;;5116027;28;20187;-73
2022/11/26 08:39:31;;;;;;;44.03;25.83;;;5.30;99.90;;;;;;5092958;28;20624;-73
2022/11/26 08:41:56;;;;;;;50.20;28.60;;;5.30;99.90;;;;;;5117090;28;20477;-73
2022/11/26 08:44:22;;;;;;;55.50;28.70;;;5.30;99.90;;;;;;5115831;28;20200;-73
2022/11/26 08:46:48;;;;;;;51.63;24.60;;;5.30;99.90;;;;;;5081711;28;20252;-73
2022/11/26 08:49:15;;;;;;;38.80;22.77;;;5.30;99.90;;;;;;5115948;28;20186;-73
2022/11/26 08:51:42;;;;;;;38.33;21.05;;;5.40;99.90;;;;;;5115582;28;20216;-73
2022/11/26 08:54:08;;;;;;;65.68;33.40;;;5.40;99.90;;;;;;5115676;28;20184;-73
2022/11/26 08:56:34;;;;;;;42.55;23.50;;;5.40;99.90;;;;;;5104323;28;20215;-73
2022/11/26 08:59:00;;;;;;;40.00;20.63;;;5.40;99.90;;;;;;5095698;28;20211;-73
2022/11/26 09:01:28;;;;;;;40.70;22.17;;;5.50;99.90;;;;;;5093992;28;20570;-73
2022/11/26 09:03:56;;;;;;;103.85;54.88;;;5.50;99.90;;;;;;5109241;28;20267;-73
2022/11/26 09:06:24;;;;;;;35.80;19.92;;;5.50;99.90;;;;;;5091672;28;20190;-73
2022/11/26 09:09:35;;;;;;;35.38;20.40;;;5.50;99.90;;;;;;5104677;28;20188;-73
2022/11/26 09:11:41;;;;;;;63.70;30.00;;;5.50;99.90;;;;;;5085729;28;20197;-73
2022/11/26 09:14:09;;;;;;;50.45;24.92;;;5.50;99.90;;;;;;5097821;28;20180;-74
2022/11/26 09:16:34;;;;;;;89.57;44.65;;;5.60;99.90;;;;;;5100969;28;20187;-73
2022/11/26 09:19:03;;;;;;;70.10;32.10;;;5.60;99.90;;;;;;5112107;28;20176;-73
2022/11/26 09:21:29;;;;;;;52.72;25.10;;;5.60;99.90;;;;;;5096105;28;20472;-73
2022/11/26 09:23:55;;;;;;;41.65;22.13;;;5.60;99.90;;;;;;5097429;28;20188;-72
2022/11/26 09:26:22;;;;;;;47.00;25.77;;;5.70;99.90;;;;;;5115769;28;20522;-73
2022/11/26 09:28:48;;;;;;;44.95;23.60;;;5.70;99.90;;;;;;5102546;28;20187;-72
2022/11/26 09:31:14;;;;;;;55.10;29.23;;;5.70;99.90;;;;;;5089975;28;20286;-73
2022/11/26 09:33:40;;;;;;;50.75;30.15;;;5.80;99.90;;;;;;5093165;28;20179;-72
2022/11/26 09:36:12;;;;;;;60.83;31.63;;;5.80;99.90;;;;;;5112234;28;20596;-72
2022/11/26 09:38:38;;;;;;;92.30;43.03;;;5.80;99.90;;;;;;5088129;28;20232;-73
2022/11/26 09:41:42;;;;;;;70.70;38.13;;;5.80;99.90;;;;;;5094046;28;20291;-73
2022/11/26 09:44:14;;;;;;;65.47;34.58;;;5.90;99.90;;;;;;5063948;28;20188;-73
2022/11/26 09:46:51;;;;;;;64.72;31.30;;;5.90;99.90;;;;;;5093368;28;20180;-73
2022/11/26 09:49:17;;;;;;;108.68;52.38;;;5.90;99.90;;;;;;5112685;28;20206;-72
2022/11/26 09:51:49;;;;;;;62.03;34.67;;;6.00;99.90;;;;;;5093178;28;20271;-73
2022/11/26 09:54:18;;;;;;;110.55;52.88;;;5.90;99.90;;;;;;5093713;28;20169;-73
2022/11/26 09:56:44;;;;;;;60.88;30.77;;;6.00;99.90;;;;;;5107981;28;20183;-73
2022/11/26 09:59:14;;;;;;;47.50;27.10;;;6.00;99.90;;;;;;5099397;28;20536;-73
2022/11/26 10:01:41;;;;;;;115.75;53.10;;;6.00;99.90;;;;;;5115874;28;20590;-72
2022/11/26 10:04:09;;;;;;;67.78;35.15;;;6.10;99.90;;;;;;5108812;28;20184;-73
2022/11/26 10:06:46;;;;;;;59.55;30.58;;;6.20;99.90;;;;;;5104753;28;20177;-73
2022/11/26 10:09:39;;;;;;;51.00;28.17;;;6.30;99.90;;;;;;5095380;28;20183;-73
2022/11/26 10:12:08;;;;;;;48.00;25.25;;;6.30;99.90;;;;;;5099271;28;20191;-73
2022/11/26 10:14:54;;;;;;;44.28;23.45;;;6.40;99.90;;;;;;5115310;28;20298;-74
2022/11/26 10:17:31;;;;;;;38.42;20.55;;;6.50;99.90;;;;;;5096316;28;20184;-74
2022/11/26 10:20:12;;;;;;;40.67;24.65;;;6.60;99.90;;;;;;5102108;28;20218;-73
2022/11/26 10:23:05;;;;;;;52.72;25.52;;;6.70;99.90;;;;;;5085143;28;20533;-73
2022/11/26 10:25:53;;;;;;;49.53;26.85;;;6.80;99.90;;;;;;5055799;28;20305;-72
2022/11/26 10:28:29;;;;;;;45.65;24.88;;;6.90;99.90;;;;;;5096491;28;20180;-73
2022/11/26 10:30:58;;;;;;;35.63;21.98;;;6.90;99.90;;;;;;5115150;28;20193;-71
2022/11/26 10:33:29;;;;;;;37.72;23.10;;;7.00;99.90;;;;;;5114691;28;20201;-74
2022/11/26 10:35:54;;;;;;;41.72;23.92;;;7.10;99.90;;;;;;5097013;28;20199;-72
2022/11/26 10:38:20;;;;;;;39.60;20.90;;;7.20;99.90;;;;;;5092616;28;20228;-72
2022/11/26 10:40:45;;;;;;;41.13;22.00;;;7.20;99.90;;;;;;5092871;28;20580;-71
2022/11/26 10:43:19;;;;;;;42.80;23.67;;;7.30;99.90;;;;;;5083658;28;20180;-76
2022/11/26 10:45:55;;;;;;;39.45;23.85;;;7.40;99.90;;;;;;5091982;28;20196;-70
2022/11/26 10:48:33;;;;;;;45.97;25.63;;;7.50;99.90;;;;;;5093068;28;20529;-75
2022/11/26 10:51:01;;;;;;;37.97;22.55;;;7.60;99.90;;;;;;5093318;28;20283;-73
2022/11/26 10:53:30;;;;;;;38.83;23.38;;;7.60;99.90;;;;;;5086336;28;20264;-74
2022/11/26 10:56:02;;;;;;;41.60;24.42;;;7.70;99.90;;;;;;5090152;28;20279;-73
2022/11/26 10:58:36;;;;;;;41.83;23.45;;;7.70;99.90;;;;;;5088576;28;20180;-69
2022/11/26 11:01:02;;;;;;;40.10;22.80;;;7.80;99.90;;;;;;5082807;28;20576;-75
2022/11/26 11:03:31;;;;;;;46.50;25.60;;;7.80;99.90;;;;;;5090897;28;20179;-71
2022/11/26 11:06:17;;;;;;;37.88;23.75;;;7.80;99.90;;;;;;5085089;28;20201;-73
2022/11/26 11:08:42;;;;;;;38.47;21.98;;;7.90;99.90;;;;;;5082272;28;20185;-72
2022/11/26 11:11:26;;;;;;;40.70;22.83;;;7.90;99.90;;;;;;5089510;28;20263;-72
2022/11/26 11:13:53;;;;;;;40.42;23.35;;;7.90;99.90;;;;;;5080659;28;20185;-72
2022/11/26 11:16:27;;;;;;;37.38;21.42;;;7.90;99.90;;;;;;5086673;28;20232;-72
2022/11/26 11:19:00;;;;;;;40.63;21.75;;;7.90;99.90;;;;;;5079243;28;20187;-73
2022/11/26 11:21:33;;;;;;;36.15;21.30;;;7.90;99.90;;;;;;5075626;28;20670;-72
2022/11/26 11:24:14;;;;;;;42.63;25.05;;;7.90;99.90;;;;;;5080050;28;20211;-73
2022/11/26 11:26:45;;;;;;;35.78;22.52;;;7.90;99.90;;;;;;5074339;28;20582;-74
2022/11/26 11:29:28;;;;;;;39.83;25.45;;;7.90;99.90;;;;;;5076336;28;20732;-73
2022/11/26 11:31:56;;;;;;;36.50;20.33;;;8.00;99.90;;;;;;5083014;28;20211;-73
2022/11/26 11:34:36;;;;;;;51.75;32.20;;;8.00;99.90;;;;;;5091213;28;20202;-73
2022/11/26 11:37:11;;;;;;;35.05;20.35;;;8.00;99.90;;;;;;5085268;28;20183;-73
2022/11/26 11:39:37;;;;;;;33.22;21.40;;;8.10;99.90;;;;;;5095526;28;20261;-73
2022/11/26 11:42:06;;;;;;;84.50;64.80;;;8.10;99.90;;;;;;5108535;28;20256;-73
2022/11/26 11:44:44;;;;;;;37.90;22.77;;;8.10;99.90;;;;;;5110012;28;20214;-73
2022/11/26 11:47:50;;;;;;;36.00;22.25;;;8.10;99.90;;;;;;5092414;28;20198;-73
2022/11/26 11:50:42;;;;;;;34.45;22.17;;;8.20;99.90;;;;;;5050686;28;20568;-73
2022/11/26 11:53:32;;;;;;;41.10;22.60;;;8.20;99.90;;;;;;5037681;28;20225;-73
2022/11/26 11:56:24;;;;;;;34.42;20.75;;;8.20;99.90;;;;;;5083134;28;20231;-74
2022/11/26 11:58:52;;;;;;;36.28;21.23;;;8.20;99.90;;;;;;5090741;28;20212;-73
2022/11/26 12:01:26;;;;;;;44.78;24.25;;;8.30;99.90;;;;;;5098513;28;20208;-72
2022/11/26 12:04:16;;;;;;;37.63;23.65;;;8.30;99.90;;;;;;5110205;28;20184;-73
2022/11/26 12:06:47;;;;;;;37.80;23.33;;;8.30;99.90;;;;;;5112357;28;20179;-74
2022/11/26 12:09:41;;;;;;;41.50;23.85;;;8.30;99.90;;;;;;5080525;28;21715;-74
2022/11/26 12:12:24;;;;;;;41.97;23.45;;;8.30;99.90;;;;;;5111006;28;20236;-73
2022/11/26 12:14:54;;;;;;;38.47;21.55;;;8.30;99.90;;;;;;5093320;28;20207;-73
2022/11/26 12:17:36;;;;;;;44.80;26.48;;;8.30;99.90;;;;;;5102169;28;20176;-74
2022/11/26 12:20:30;;;;;;;54.03;30.42;;;8.40;99.90;;;;;;5108390;28;20311;-73
2022/11/26 12:23:22;;;;;;;46.85;28.88;;;8.40;99.90;;;;;;5112176;28;20597;-73
2022/11/26 12:25:53;;;;;;;53.92;28.98;;;8.30;99.90;;;;;;5111496;28;20218;-73
2022/11/26 12:28:27;;;;;;;49.80;28.38;;;8.30;99.90;;;;;;5112516;28;20190;-73
2022/11/26 12:31:07;;;;;;;49.95;28.17;;;8.30;99.90;;;;;;5107718;28;20214;-73
2022/11/26 12:33:42;;;;;;;53.17;28.15;;;8.30;99.90;;;;;;5106391;28;20199;-73
2022/11/26 12:36:34;;;;;;;43.95;26.77;;;8.30;99.90;;;;;;5083815;28;20680;-73
2022/11/26 12:39:05;;;;;;;46.78;28.25;;;8.20;99.90;;;;;;5098780;28;20238;-73
2022/11/26 12:41:42;;;;;;;45.85;27.05;;;8.20;99.90;;;;;;5105773;28;20228;-74
2022/11/26 12:44:40;;;;;;;46.65;29.13;;;8.20;99.90;;;;;;5092759;28;20179;-74
2022/11/26 12:47:37;;;;;;;46.97;27.70;;;8.10;99.90;;;;;;5098339;28;20264;-74
2022/11/26 12:50:22;;;;;;;49.20;26.52;;;8.10;99.90;;;;;;5108215;28;20699;-74